createdAt,value
2024-03-28T00:00:40.213Z,0.00
2024-03-28T00:01:40.216Z,0.00
2024-03-28T00:02:40.192Z,0.00
2024-03-28T00:03:40.182Z,0.00
2024-03-28T00:04:40.614Z,0.00
2024-03-28T00:05:40.191Z,0.00
2024-03-28T00:06:40.158Z,0.00
2024-03-28T00:07:40.150Z,0.00
2024-03-28T00:08:40.155Z,0.00
2024-03-28T00:09:40.170Z,0.00
2024-03-28T00:10:40.145Z,0.00
2024-03-28T00:11:40.138Z,0.00
2024-03-28T00:12:40.124Z,0.00
2024-03-28T00:13:40.110Z,0.00
2024-03-28T00:14:40.107Z,0.00
2024-03-28T00:15:40.128Z,0.00
2024-03-28T00:16:40.095Z,0.00
2024-03-28T00:17:40.098Z,0.00
2024-03-28T00:18:40.095Z,0.00
2024-03-28T00:19:40.103Z,0.00
2024-03-28T00:20:40.233Z,0.00
2024-03-28T00:21:40.065Z,0.00
2024-03-28T00:22:40.063Z,0.00
2024-03-28T00:23:40.058Z,0.00
2024-03-28T00:24:40.055Z,0.00
2024-03-28T00:25:40.048Z,0.00
2024-03-28T00:26:40.042Z,0.00
2024-03-28T00:27:40.026Z,0.00
2024-03-28T00:28:40.028Z,0.00
2024-03-28T00:29:40.028Z,0.00
2024-03-28T00:30:40.012Z,0.00
2024-03-28T00:31:40.020Z,0.00
2024-03-28T00:32:39.993Z,0.00
2024-03-28T00:33:39.992Z,0.00
2024-03-28T00:34:39.991Z,0.00
2024-03-28T00:35:39.974Z,0.00
2024-03-28T00:36:39.986Z,0.00
2024-03-28T00:37:39.951Z,0.00
2024-03-28T00:38:39.949Z,0.00
2024-03-28T00:39:39.938Z,0.00
2024-03-28T00:40:39.935Z,0.00
2024-03-28T00:41:39.930Z,0.00
2024-03-28T00:42:39.942Z,0.00
2024-03-28T00:43:39.925Z,0.00
2024-03-28T00:44:40.068Z,0.00
2024-03-28T00:45:40.901Z,0.00
2024-03-28T00:46:39.890Z,0.00
2024-03-28T00:47:39.916Z,0.00
2024-03-28T00:48:39.890Z,0.00
2024-03-28T00:49:39.876Z,0.00
2024-03-28T00:50:39.878Z,0.00
2024-03-28T00:51:39.866Z,0.00
2024-03-28T00:52:39.877Z,0.00
2024-03-28T00:53:39.856Z,0.00
2024-03-28T00:54:39.837Z,0.00
2024-03-28T00:55:39.843Z,0.00
2024-03-28T00:56:39.841Z,0.00
2024-03-28T00:57:39.838Z,0.00
2024-03-28T00:58:39.832Z,0.00
2024-03-28T00:59:39.835Z,0.00
2024-03-28T01:00:39.817Z,0.00
2024-03-28T01:01:39.803Z,0.00
2024-03-28T01:02:39.787Z,0.00
2024-03-28T01:03:39.789Z,0.00
2024-03-28T01:04:39.800Z,0.00
2024-03-28T01:05:39.776Z,0.00
2024-03-28T01:06:39.781Z,0.00
2024-03-28T01:07:39.782Z,0.00
2024-03-28T01:08:39.757Z,0.00
2024-03-28T01:09:41.885Z,0.00
2024-03-28T01:10:40.737Z,0.00
2024-03-28T01:11:39.729Z,0.00
2024-03-28T01:12:39.738Z,0.00
2024-03-28T01:13:39.721Z,0.00
2024-03-28T01:14:39.724Z,0.00
2024-03-28T01:15:39.710Z,0.00
2024-03-28T01:16:39.717Z,0.00
2024-03-28T01:17:39.694Z,0.00
2024-03-28T01:18:39.684Z,0.00
2024-03-28T01:19:39.687Z,0.00
2024-03-28T01:20:39.684Z,0.00
2024-03-28T01:21:39.670Z,0.00
2024-03-28T01:22:39.666Z,0.00
2024-03-28T01:23:39.648Z,0.00
2024-03-28T01:24:39.650Z,0.00
2024-03-28T01:25:39.695Z,0.00
2024-03-28T01:26:39.625Z,0.00
2024-03-28T01:27:39.634Z,0.00
2024-03-28T01:28:39.636Z,0.00
2024-03-28T01:29:39.666Z,0.00
2024-03-28T01:30:39.620Z,0.00
2024-03-28T01:31:39.662Z,0.00
2024-03-28T01:32:39.618Z,0.00
2024-03-28T01:33:39.593Z,0.00
2024-03-28T01:34:39.580Z,0.00
2024-03-28T01:35:39.569Z,0.00
2024-03-28T01:36:39.584Z,0.00
2024-03-28T01:37:39.552Z,0.00
2024-03-28T01:38:39.542Z,0.00
2024-03-28T01:39:39.538Z,0.00
2024-03-28T01:40:39.713Z,0.00
2024-03-28T01:41:39.542Z,0.00
2024-03-28T01:42:39.511Z,0.00
2024-03-28T01:43:39.518Z,0.00
2024-03-28T01:44:39.503Z,0.00
2024-03-28T01:45:39.525Z,0.00
2024-03-28T01:46:43.708Z,0.00
2024-03-28T01:47:48.837Z,0.00
2024-03-28T01:48:41.497Z,0.00
2024-03-28T01:49:39.479Z,0.00
2024-03-28T01:50:39.476Z,0.00
2024-03-28T01:51:39.497Z,0.00
2024-03-28T01:52:39.466Z,0.00
2024-03-28T01:53:39.461Z,0.00
2024-03-28T01:54:39.439Z,0.00
2024-03-28T01:55:39.450Z,0.00
2024-03-28T01:56:39.430Z,0.00
2024-03-28T01:57:39.442Z,0.00
2024-03-28T01:58:39.454Z,0.00
2024-03-28T01:59:39.421Z,0.00
2024-03-28T02:00:39.409Z,0.00
2024-03-28T02:01:39.407Z,0.00
2024-03-28T02:02:39.410Z,0.00
2024-03-28T02:03:39.383Z,0.00
2024-03-28T02:04:39.377Z,0.00
2024-03-28T02:05:39.385Z,0.00
2024-03-28T02:06:39.435Z,0.00
2024-03-28T02:07:39.383Z,0.00
2024-03-28T02:08:39.353Z,0.00
2024-03-28T02:09:39.373Z,0.00
2024-03-28T02:10:39.367Z,0.00
2024-03-28T02:11:39.345Z,0.00
2024-03-28T02:12:39.342Z,0.00
2024-03-28T02:13:39.322Z,0.00
2024-03-28T02:14:39.338Z,0.00
2024-03-28T02:15:39.306Z,0.00
2024-03-28T02:16:39.300Z,0.00
2024-03-28T02:17:39.310Z,0.00
2024-03-28T02:18:39.288Z,0.00
2024-03-28T02:19:39.290Z,0.00
2024-03-28T02:20:39.282Z,0.00
2024-03-28T02:21:39.274Z,0.00
2024-03-28T02:22:39.289Z,0.00
2024-03-28T02:23:39.262Z,0.00
2024-03-28T02:24:39.253Z,0.00
2024-03-28T02:25:39.249Z,0.00
2024-03-28T02:26:39.243Z,0.00
2024-03-28T02:27:39.244Z,0.00
2024-03-28T02:28:39.275Z,0.00
2024-03-28T02:29:39.222Z,0.00
2024-03-28T02:30:39.206Z,0.00
2024-03-28T02:31:40.218Z,0.00
2024-03-28T02:32:39.211Z,0.00
2024-03-28T02:33:39.203Z,0.00
2024-03-28T02:34:39.183Z,0.00
2024-03-28T02:35:39.201Z,0.00
2024-03-28T02:36:39.174Z,0.00
2024-03-28T02:37:39.179Z,0.00
2024-03-28T02:38:39.156Z,0.00
2024-03-28T02:39:39.152Z,0.00
2024-03-28T02:40:39.147Z,0.00
2024-03-28T02:41:39.135Z,0.00
2024-03-28T02:42:39.147Z,0.00
2024-03-28T02:43:39.131Z,0.00
2024-03-28T02:44:39.129Z,0.00
2024-03-28T02:45:39.107Z,0.00
2024-03-28T02:46:39.120Z,0.00
2024-03-28T02:47:39.103Z,0.00
2024-03-28T02:48:39.140Z,0.00
2024-03-28T02:49:39.094Z,0.00
2024-03-28T02:50:39.079Z,0.00
2024-03-28T02:51:39.072Z,0.00
2024-03-28T02:52:39.085Z,0.00
2024-03-28T02:53:39.082Z,0.00
2024-03-28T02:54:39.053Z,0.00
2024-03-28T02:55:39.051Z,0.00
2024-03-28T02:56:39.040Z,0.00
2024-03-28T02:57:39.032Z,0.00
2024-03-28T02:58:39.026Z,0.00
2024-03-28T02:59:39.035Z,0.00
2024-03-28T03:00:39.025Z,0.00
2024-03-28T03:01:39.004Z,0.00
2024-03-28T03:02:39.008Z,0.00
2024-03-28T03:03:39.000Z,0.00
2024-03-28T03:04:39.000Z,0.00
2024-03-28T03:05:38.982Z,0.00
2024-03-28T03:06:40.472Z,0.00
2024-03-28T03:07:38.968Z,0.00
2024-03-28T03:08:38.961Z,0.00
2024-03-28T03:09:38.964Z,0.00
2024-03-28T03:10:38.975Z,0.00
2024-03-28T03:11:38.935Z,0.00
2024-03-28T03:12:38.934Z,0.00
2024-03-28T03:13:38.924Z,0.00
2024-03-28T03:14:38.929Z,0.00
2024-03-28T03:15:38.916Z,0.00
2024-03-28T03:16:38.910Z,0.00
2024-03-28T03:17:38.890Z,0.00
2024-03-28T03:18:38.892Z,0.00
2024-03-28T03:19:38.879Z,0.00
2024-03-28T03:20:38.888Z,0.00
2024-03-28T03:21:38.875Z,0.00
2024-03-28T03:22:38.864Z,0.00
2024-03-28T03:23:38.858Z,0.00
2024-03-28T03:24:38.863Z,0.00
2024-03-28T03:25:38.850Z,0.00
2024-03-28T03:26:38.842Z,0.00
2024-03-28T03:27:38.840Z,0.00
2024-03-28T03:28:38.826Z,0.00
2024-03-28T03:29:38.813Z,0.00
2024-03-28T03:30:38.818Z,0.00
2024-03-28T03:31:38.797Z,0.00
2024-03-28T03:32:38.798Z,0.00
2024-03-28T03:33:38.785Z,0.00
2024-03-28T03:34:38.774Z,0.00
2024-03-28T03:35:38.771Z,0.00
2024-03-28T03:36:38.775Z,0.00
2024-03-28T03:37:38.773Z,0.00
2024-03-28T03:38:38.757Z,0.00
2024-03-28T03:39:38.744Z,0.00
2024-03-28T03:40:38.735Z,0.00
2024-03-28T03:41:38.745Z,0.00
2024-03-28T03:42:38.720Z,0.00
2024-03-28T03:43:38.747Z,0.00
2024-03-28T03:44:38.724Z,0.00
2024-03-28T03:45:38.706Z,0.00
2024-03-28T03:46:38.711Z,0.00
2024-03-28T03:47:38.707Z,0.00
2024-03-28T03:48:38.699Z,0.00
2024-03-28T03:49:38.678Z,0.00
2024-03-28T03:50:38.683Z,0.00
2024-03-28T03:51:38.679Z,0.00
2024-03-28T03:52:38.670Z,0.00
2024-03-28T03:53:38.659Z,0.00
2024-03-28T03:54:38.999Z,0.00
2024-03-28T03:55:39.523Z,0.00
2024-03-28T03:56:38.691Z,0.00
2024-03-28T03:57:38.630Z,0.00
2024-03-28T03:58:38.640Z,0.00
2024-03-28T03:59:38.623Z,0.00
2024-03-28T04:00:38.613Z,0.00
2024-03-28T04:01:38.612Z,0.00
2024-03-28T04:02:38.595Z,0.00
2024-03-28T04:03:38.627Z,0.00
2024-03-28T04:04:38.588Z,0.00
2024-03-28T04:05:38.576Z,0.00
2024-03-28T04:06:38.574Z,0.00
2024-03-28T04:07:38.586Z,0.00
2024-03-28T04:08:38.555Z,0.00
2024-03-28T04:09:38.550Z,0.00
2024-03-28T04:10:39.531Z,0.00
2024-03-28T04:11:38.557Z,0.00
2024-03-28T04:12:38.611Z,0.00
2024-03-28T04:13:38.532Z,0.00
2024-03-28T04:14:43.520Z,0.00
2024-03-28T04:15:40.514Z,0.00
2024-03-28T04:16:38.501Z,0.00
2024-03-28T04:17:38.511Z,0.00
2024-03-28T04:18:38.505Z,0.00
2024-03-28T04:19:38.487Z,0.00
2024-03-28T04:20:38.487Z,0.00
2024-03-28T04:21:40.742Z,0.00
2024-03-28T04:22:38.492Z,0.00
2024-03-28T04:23:38.470Z,0.00
2024-03-28T04:24:38.447Z,0.00
2024-03-28T04:25:38.440Z,0.00
2024-03-28T04:26:38.435Z,0.00
2024-03-28T04:27:38.427Z,0.00
2024-03-28T04:28:38.439Z,0.00
2024-03-28T04:29:38.510Z,0.00
2024-03-28T04:30:38.411Z,0.00
2024-03-28T04:31:38.402Z,0.00
2024-03-28T04:32:38.401Z,0.00
2024-03-28T04:33:38.418Z,0.00
2024-03-28T04:34:38.375Z,0.00
2024-03-28T04:35:38.396Z,0.00
2024-03-28T04:36:38.371Z,0.00
2024-03-28T04:37:38.368Z,0.00
2024-03-28T04:38:39.608Z,0.00
2024-03-28T04:39:38.356Z,0.00
2024-03-28T04:40:38.349Z,0.00
2024-03-28T04:41:38.343Z,0.00
2024-03-28T04:42:38.339Z,0.00
2024-03-28T04:43:39.453Z,0.00
2024-03-28T04:44:39.331Z,0.00
2024-03-28T04:45:39.315Z,0.00
2024-03-28T04:46:38.307Z,0.00
2024-03-28T04:47:38.322Z,0.00
2024-03-28T04:48:38.318Z,0.00
2024-03-28T04:49:38.308Z,0.00
2024-03-28T04:50:38.280Z,0.00
2024-03-28T04:51:38.294Z,0.00
2024-03-28T04:52:38.282Z,0.00
2024-03-28T04:53:38.263Z,0.00
2024-03-28T04:54:38.269Z,0.00
2024-03-28T04:55:38.255Z,0.00
2024-03-28T04:56:38.243Z,0.00
2024-03-28T04:57:38.237Z,0.00
2024-03-28T04:58:38.231Z,0.00
2024-03-28T04:59:38.229Z,0.00
2024-03-28T05:00:38.213Z,0.00
2024-03-28T05:01:38.242Z,0.00
2024-03-28T05:02:38.223Z,0.00
2024-03-28T05:03:38.208Z,0.00
2024-03-28T05:04:38.187Z,0.00
2024-03-28T05:05:38.184Z,0.00
2024-03-28T05:06:38.184Z,0.00
2024-03-28T05:07:38.171Z,0.00
2024-03-28T05:08:38.176Z,0.00
2024-03-28T05:09:38.156Z,0.00
2024-03-28T05:10:38.158Z,0.00
2024-03-28T05:11:38.148Z,5.62
2024-03-28T05:12:38.143Z,5.62
2024-03-28T05:13:38.141Z,5.62
2024-03-28T05:14:38.132Z,5.62
2024-03-28T05:15:38.118Z,5.62
2024-03-28T05:16:38.120Z,5.62
2024-03-28T05:17:38.106Z,5.62
2024-03-28T05:18:38.104Z,11.25
2024-03-28T05:19:38.087Z,11.25
2024-03-28T05:20:38.082Z,11.25
2024-03-28T05:21:38.106Z,11.25
2024-03-28T05:22:38.065Z,11.25
2024-03-28T05:23:38.062Z,11.25
2024-03-28T05:24:38.097Z,16.88
2024-03-28T05:25:38.052Z,16.88
2024-03-28T05:26:38.071Z,16.88
2024-03-28T05:27:38.039Z,16.88
2024-03-28T05:28:38.042Z,22.50
2024-03-28T05:29:38.036Z,22.50
2024-03-28T05:30:38.015Z,22.50
2024-03-28T05:31:38.011Z,22.50
2024-03-28T05:32:38.001Z,22.50
2024-03-28T05:33:38.013Z,28.12
2024-03-28T05:34:37.991Z,28.12
2024-03-28T05:35:37.982Z,28.12
2024-03-28T05:36:38.027Z,28.12
2024-03-28T05:37:37.964Z,28.12
2024-03-28T05:38:39.022Z,28.12
2024-03-28T05:39:37.957Z,33.75
2024-03-28T05:40:37.970Z,39.38
2024-03-28T05:41:37.954Z,39.38
2024-03-28T05:42:37.931Z,39.38
2024-03-28T05:43:37.930Z,39.38
2024-03-28T05:44:37.917Z,39.38
2024-03-28T05:45:37.906Z,45.00
2024-03-28T05:46:37.991Z,45.00
2024-03-28T05:47:37.906Z,50.62
2024-03-28T05:48:37.952Z,50.62
2024-03-28T05:49:37.912Z,50.62
2024-03-28T05:50:38.081Z,50.62
2024-03-28T05:51:37.872Z,50.62
2024-03-28T05:52:37.859Z,50.62
2024-03-28T05:53:37.860Z,50.62
2024-03-28T05:54:37.847Z,50.62
2024-03-28T05:55:37.866Z,50.62
2024-03-28T05:56:40.031Z,56.25
2024-03-28T05:57:38.879Z,56.25
2024-03-28T05:58:37.832Z,67.50
2024-03-28T05:59:37.838Z,73.12
2024-03-28T06:00:37.829Z,73.12
2024-03-28T06:01:37.806Z,73.12
2024-03-28T06:02:37.881Z,78.75
2024-03-28T06:03:37.807Z,78.75
2024-03-28T06:04:37.784Z,78.75
2024-03-28T06:05:37.841Z,78.75
2024-03-28T06:06:37.833Z,78.75
2024-03-28T06:07:37.822Z,78.75
2024-03-28T06:08:37.825Z,84.38
2024-03-28T06:09:37.744Z,84.38
2024-03-28T06:10:37.766Z,101.25
2024-03-28T06:11:37.790Z,112.50
2024-03-28T06:12:37.736Z,118.12
2024-03-28T06:13:37.947Z,135.00
2024-03-28T06:14:37.749Z,140.62
2024-03-28T06:15:37.720Z,135.00
2024-03-28T06:16:37.866Z,140.62
2024-03-28T06:17:37.700Z,140.62
2024-03-28T06:18:37.700Z,129.38
2024-03-28T06:19:37.749Z,123.75
2024-03-28T06:20:37.683Z,118.12
2024-03-28T06:21:37.730Z,129.38
2024-03-28T06:22:37.674Z,135.00
2024-03-28T06:23:37.665Z,123.75
2024-03-28T06:24:37.650Z,123.75
2024-03-28T06:25:37.663Z,112.50
2024-03-28T06:26:37.683Z,151.88
2024-03-28T06:27:37.651Z,140.62
2024-03-28T06:28:37.629Z,168.75
2024-03-28T06:29:37.610Z,180.00
2024-03-28T06:30:37.613Z,208.12
2024-03-28T06:31:37.639Z,213.75
2024-03-28T06:32:37.660Z,191.25
2024-03-28T06:33:37.644Z,202.50
2024-03-28T06:34:37.594Z,196.88
2024-03-28T06:35:39.863Z,196.88
2024-03-28T06:36:37.584Z,208.12
2024-03-28T06:37:37.589Z,213.75
2024-03-28T06:38:37.578Z,208.12
2024-03-28T06:39:37.556Z,208.12
2024-03-28T06:40:37.539Z,213.75
2024-03-28T06:41:37.667Z,213.75
2024-03-28T06:42:37.522Z,264.38
2024-03-28T06:43:37.531Z,241.88
2024-03-28T06:44:38.981Z,230.62
2024-03-28T06:45:37.530Z,298.12
2024-03-28T06:46:37.507Z,286.88
2024-03-28T06:47:37.495Z,264.38
2024-03-28T06:48:37.499Z,303.75
2024-03-28T06:49:37.487Z,258.75
2024-03-28T06:50:37.487Z,523.12
2024-03-28T06:51:37.504Z,601.88
2024-03-28T06:52:37.462Z,551.25
2024-03-28T06:53:37.459Z,495.00
2024-03-28T06:54:37.448Z,646.88
2024-03-28T06:55:37.442Z,855.00
2024-03-28T06:56:37.435Z,1051.88
2024-03-28T06:57:37.433Z,1012.50
2024-03-28T06:58:37.446Z,933.75
2024-03-28T06:59:37.424Z,860.62
2024-03-28T07:00:37.426Z,888.75
2024-03-28T07:01:37.408Z,961.88
2024-03-28T07:02:37.397Z,1125.00
2024-03-28T07:03:37.399Z,1485.00
2024-03-28T07:04:37.380Z,1316.25
2024-03-28T07:05:37.387Z,326.25
2024-03-28T07:06:37.375Z,326.25
2024-03-28T07:07:37.366Z,343.12
2024-03-28T07:08:37.380Z,686.25
2024-03-28T07:09:37.345Z,382.50
2024-03-28T07:10:37.354Z,1001.25
2024-03-28T07:11:37.326Z,1434.38
2024-03-28T07:12:37.328Z,1125.00
2024-03-28T07:13:37.328Z,1378.12
2024-03-28T07:14:37.316Z,1423.12
2024-03-28T07:15:37.298Z,1400.62
2024-03-28T07:16:37.356Z,1006.88
2024-03-28T07:17:37.292Z,1282.50
2024-03-28T07:18:37.328Z,1170.00
2024-03-28T07:19:37.285Z,995.62
2024-03-28T07:20:37.271Z,1012.50
2024-03-28T07:21:37.278Z,1085.62
2024-03-28T07:22:37.265Z,1119.38
2024-03-28T07:23:37.267Z,1080.00
2024-03-28T07:24:37.271Z,1023.75
2024-03-28T07:25:37.238Z,1057.50
2024-03-28T07:26:37.238Z,1141.88
2024-03-28T07:27:37.224Z,1164.38
2024-03-28T07:28:37.249Z,1119.38
2024-03-28T07:29:37.220Z,1096.88
2024-03-28T07:30:37.215Z,1158.75
2024-03-28T07:31:37.199Z,1181.25
2024-03-28T07:32:37.196Z,1215.00
2024-03-28T07:33:37.197Z,1181.25
2024-03-28T07:34:37.187Z,1181.25
2024-03-28T07:35:37.184Z,1237.50
2024-03-28T07:36:37.167Z,1192.50
2024-03-28T07:37:37.183Z,1198.12
2024-03-28T07:38:37.184Z,1282.50
2024-03-28T07:39:37.182Z,1243.12
2024-03-28T07:40:37.142Z,1158.75
2024-03-28T07:41:37.136Z,1226.25
2024-03-28T07:42:37.146Z,1248.75
2024-03-28T07:43:37.118Z,1310.62
2024-03-28T07:44:37.141Z,1282.50
2024-03-28T07:45:37.108Z,1231.88
2024-03-28T07:46:37.118Z,1226.25
2024-03-28T07:47:37.148Z,1254.38
2024-03-28T07:48:38.039Z,1293.75
2024-03-28T07:49:37.096Z,1327.50
2024-03-28T07:50:37.098Z,1321.88
2024-03-28T07:51:37.065Z,1395.00
2024-03-28T07:52:37.053Z,1321.88
2024-03-28T07:53:37.052Z,1428.75
2024-03-28T07:54:37.330Z,1400.62
2024-03-28T07:55:38.043Z,1389.38
2024-03-28T07:56:37.018Z,1361.25
2024-03-28T07:57:37.015Z,1406.25
2024-03-28T07:58:37.056Z,1417.50
2024-03-28T07:59:37.014Z,1389.38
2024-03-28T08:00:37.014Z,1597.50
2024-03-28T08:01:37.000Z,1580.62
2024-03-28T08:02:36.974Z,1434.38
2024-03-28T08:03:36.985Z,1366.88
2024-03-28T08:04:36.968Z,1496.25
2024-03-28T08:05:36.969Z,1524.38
2024-03-28T08:06:36.945Z,1456.88
2024-03-28T08:07:36.949Z,939.38
2024-03-28T08:08:36.948Z,697.50
2024-03-28T08:09:36.930Z,810.00
2024-03-28T08:10:36.913Z,568.12
2024-03-28T08:11:36.934Z,832.50
2024-03-28T08:12:36.906Z,1383.75
2024-03-28T08:13:36.920Z,1451.25
2024-03-28T08:14:36.888Z,1299.38
2024-03-28T08:15:36.902Z,1648.12
2024-03-28T08:16:36.969Z,1665.00
2024-03-28T08:17:36.879Z,1642.50
2024-03-28T08:18:36.863Z,1698.75
2024-03-28T08:19:36.859Z,1603.12
2024-03-28T08:20:36.874Z,1665.00
2024-03-28T08:21:36.835Z,1681.88
2024-03-28T08:22:36.844Z,1721.25
2024-03-28T08:23:36.847Z,1715.62
2024-03-28T08:24:36.840Z,1636.88
2024-03-28T08:25:36.815Z,1620.00
2024-03-28T08:26:36.825Z,1659.38
2024-03-28T08:27:36.817Z,1631.25
2024-03-28T08:28:36.792Z,1704.38
2024-03-28T08:29:36.804Z,1850.62
2024-03-28T08:30:36.796Z,1642.50
2024-03-28T08:31:37.491Z,736.88
2024-03-28T08:32:36.775Z,585.00
2024-03-28T08:33:36.775Z,1001.25
2024-03-28T08:34:36.761Z,326.25
2024-03-28T08:35:36.755Z,264.38
2024-03-28T08:36:36.795Z,270.00
2024-03-28T08:37:36.736Z,405.00
2024-03-28T08:38:36.729Z,253.12
2024-03-28T08:39:36.729Z,241.88
2024-03-28T08:40:36.753Z,264.38
2024-03-28T08:41:36.742Z,275.62
2024-03-28T08:42:36.726Z,219.38
2024-03-28T08:43:36.711Z,168.75
2024-03-28T08:44:36.688Z,151.88
2024-03-28T08:45:36.718Z,140.62
2024-03-28T08:46:36.702Z,129.38
2024-03-28T08:47:36.777Z,123.75
2024-03-28T08:48:36.673Z,118.12
2024-03-28T08:49:36.675Z,106.88
2024-03-28T08:50:36.660Z,106.88
2024-03-28T08:51:36.683Z,112.50
2024-03-28T08:52:36.673Z,118.12
2024-03-28T08:53:36.710Z,118.12
2024-03-28T08:54:36.661Z,106.88
2024-03-28T08:55:36.631Z,90.00
2024-03-28T08:56:36.661Z,78.75
2024-03-28T08:57:36.651Z,67.50
2024-03-28T08:58:36.639Z,67.50
2024-03-28T08:59:36.634Z,73.12
2024-03-28T09:00:36.630Z,78.75
2024-03-28T09:01:37.553Z,78.75
2024-03-28T09:02:36.597Z,84.38
2024-03-28T09:03:36.557Z,84.38
2024-03-28T09:04:36.600Z,90.00
2024-03-28T09:05:36.583Z,95.62
2024-03-28T09:06:36.618Z,101.25
2024-03-28T09:07:36.539Z,112.50
2024-03-28T09:08:36.580Z,118.12
2024-03-28T09:09:36.574Z,118.12
2024-03-28T09:10:37.438Z,118.12
2024-03-28T09:11:37.497Z,112.50
2024-03-28T09:12:36.506Z,118.12
2024-03-28T09:13:36.546Z,118.12
2024-03-28T09:14:36.471Z,118.12
2024-03-28T09:15:36.477Z,118.12
2024-03-28T09:16:36.504Z,118.12
2024-03-28T09:17:36.456Z,118.12
2024-03-28T09:18:36.455Z,112.50
2024-03-28T09:19:36.450Z,101.25
2024-03-28T09:20:36.435Z,101.25
2024-03-28T09:21:36.444Z,101.25
2024-03-28T09:22:36.461Z,106.88
2024-03-28T09:23:36.419Z,106.88
2024-03-28T09:24:36.445Z,101.25
2024-03-28T09:25:36.518Z,90.00
2024-03-28T09:26:36.715Z,84.38
2024-03-28T09:27:36.392Z,78.75
2024-03-28T09:28:36.405Z,84.38
2024-03-28T09:29:36.371Z,84.38
2024-03-28T09:30:36.371Z,84.38
2024-03-28T09:31:36.578Z,95.62
2024-03-28T09:32:36.346Z,112.50
2024-03-28T09:33:36.341Z,140.62
2024-03-28T09:34:36.336Z,168.75
2024-03-28T09:35:36.331Z,191.25
2024-03-28T09:36:36.323Z,202.50
2024-03-28T09:37:36.316Z,202.50
2024-03-28T09:38:36.303Z,196.88
2024-03-28T09:39:36.308Z,191.25
2024-03-28T09:40:36.352Z,191.25
2024-03-28T09:41:36.273Z,185.62
2024-03-28T09:42:36.310Z,168.75
2024-03-28T09:43:36.271Z,163.12
2024-03-28T09:44:36.261Z,163.12
2024-03-28T09:45:36.245Z,163.12
2024-03-28T09:46:36.317Z,163.12
2024-03-28T09:47:36.238Z,163.12
2024-03-28T09:48:36.221Z,157.50
2024-03-28T09:49:36.242Z,140.62
2024-03-28T09:50:36.210Z,123.75
2024-03-28T09:51:36.215Z,112.50
2024-03-28T09:52:36.254Z,106.88
2024-03-28T09:53:36.251Z,106.88
2024-03-28T09:54:36.193Z,106.88
2024-03-28T09:55:36.198Z,123.75
2024-03-28T09:56:36.219Z,140.62
2024-03-28T09:57:36.162Z,168.75
2024-03-28T09:58:36.248Z,213.75
2024-03-28T09:59:36.158Z,309.38
2024-03-28T10:00:36.282Z,500.62
2024-03-28T10:01:36.234Z,416.25
2024-03-28T10:02:36.141Z,292.50
2024-03-28T10:03:36.123Z,253.12
2024-03-28T10:04:36.128Z,253.12
2024-03-28T10:05:36.109Z,258.75
2024-03-28T10:06:36.162Z,264.38
2024-03-28T10:07:36.109Z,202.50
2024-03-28T10:08:36.085Z,151.88
2024-03-28T10:09:36.074Z,129.38
2024-03-28T10:10:36.093Z,123.75
2024-03-28T10:11:36.112Z,118.12
2024-03-28T10:12:36.046Z,106.88
2024-03-28T10:13:36.056Z,101.25
2024-03-28T10:14:36.050Z,90.00
2024-03-28T10:15:36.036Z,90.00
2024-03-28T10:16:36.099Z,101.25
2024-03-28T10:17:36.027Z,95.62
2024-03-28T10:18:36.006Z,90.00
2024-03-28T10:19:36.048Z,90.00
2024-03-28T10:20:36.005Z,90.00
2024-03-28T10:21:36.078Z,84.38
2024-03-28T10:22:37.030Z,84.38
2024-03-28T10:23:35.984Z,95.62
2024-03-28T10:24:35.979Z,95.62
2024-03-28T10:25:36.047Z,95.62
2024-03-28T10:26:35.972Z,95.62
2024-03-28T10:27:35.958Z,95.62
2024-03-28T10:28:36.018Z,101.25
2024-03-28T10:29:35.958Z,90.00
2024-03-28T10:30:35.940Z,90.00
2024-03-28T10:31:35.959Z,90.00
2024-03-28T10:32:35.930Z,90.00
2024-03-28T10:33:35.937Z,95.62
2024-03-28T10:34:35.926Z,106.88
2024-03-28T10:35:35.911Z,112.50
2024-03-28T10:36:35.889Z,112.50
2024-03-28T10:37:45.332Z,118.12
2024-03-28T10:38:38.003Z,106.88
2024-03-28T10:39:35.869Z,90.00
2024-03-28T10:40:35.873Z,90.00
2024-03-28T10:41:36.526Z,90.00
2024-03-28T10:42:35.861Z,84.38
2024-03-28T10:43:35.874Z,78.75
2024-03-28T10:44:35.844Z,73.12
2024-03-28T10:45:35.842Z,78.75
2024-03-28T10:46:35.845Z,84.38
2024-03-28T10:47:35.912Z,90.00
2024-03-28T10:48:35.847Z,84.38
2024-03-28T10:49:35.874Z,101.25
2024-03-28T10:50:35.797Z,123.75
2024-03-28T10:51:35.785Z,151.88
2024-03-28T10:52:35.841Z,180.00
2024-03-28T10:53:37.872Z,151.88
2024-03-28T10:54:35.901Z,157.50
2024-03-28T10:55:36.198Z,140.62
2024-03-28T10:56:36.750Z,135.00
2024-03-28T10:57:35.754Z,140.62
2024-03-28T10:58:35.752Z,157.50
2024-03-28T10:59:35.748Z,163.12
2024-03-28T11:00:35.727Z,151.88
2024-03-28T11:01:36.443Z,151.88
2024-03-28T11:02:36.771Z,140.62
2024-03-28T11:03:35.705Z,135.00
2024-03-28T11:04:35.731Z,129.38
2024-03-28T11:05:35.722Z,146.25
2024-03-28T11:06:35.693Z,163.12
2024-03-28T11:07:35.715Z,163.12
2024-03-28T11:08:35.678Z,135.00
2024-03-28T11:09:35.662Z,129.38
2024-03-28T11:10:35.678Z,135.00
2024-03-28T11:11:35.664Z,123.75
2024-03-28T11:12:35.645Z,112.50
2024-03-28T11:13:35.651Z,112.50
2024-03-28T11:14:35.641Z,118.12
2024-03-28T11:15:35.642Z,112.50
2024-03-28T11:16:35.721Z,129.38
2024-03-28T11:17:35.631Z,140.62
2024-03-28T11:18:35.601Z,163.12
2024-03-28T11:19:35.612Z,151.88
2024-03-28T11:20:35.585Z,168.75
2024-03-28T11:21:36.061Z,191.25
2024-03-28T11:22:35.596Z,202.50
2024-03-28T11:23:35.580Z,225.00
2024-03-28T11:24:35.563Z,241.88
2024-03-28T11:25:36.838Z,258.75
2024-03-28T11:26:36.056Z,253.12
2024-03-28T11:27:35.589Z,253.12
2024-03-28T11:28:35.591Z,241.88
2024-03-28T11:29:35.536Z,241.88
2024-03-28T11:30:36.583Z,241.88
2024-03-28T11:31:38.610Z,258.75
2024-03-28T11:32:36.508Z,241.88
2024-03-28T11:33:35.496Z,247.50
2024-03-28T11:34:35.513Z,230.62
2024-03-28T11:35:35.502Z,219.38
2024-03-28T11:36:36.041Z,219.38
2024-03-28T11:37:35.533Z,213.75
2024-03-28T11:38:35.475Z,202.50
2024-03-28T11:39:35.503Z,196.88
2024-03-28T11:40:35.510Z,180.00
2024-03-28T11:41:35.452Z,151.88
2024-03-28T11:42:39.710Z,174.38
2024-03-28T11:43:37.501Z,163.12
2024-03-28T11:44:35.430Z,151.88
2024-03-28T11:45:35.428Z,180.00
2024-03-28T11:46:35.465Z,191.25
2024-03-28T11:47:35.465Z,208.12
2024-03-28T11:48:35.506Z,225.00
2024-03-28T11:49:35.403Z,185.62
2024-03-28T11:50:35.388Z,174.38
2024-03-28T11:51:35.453Z,168.75
2024-03-28T11:52:36.418Z,151.88
2024-03-28T11:53:35.478Z,123.75
2024-03-28T11:54:35.389Z,135.00
2024-03-28T11:55:35.372Z,129.38
2024-03-28T11:56:35.363Z,123.75
2024-03-28T11:57:35.370Z,140.62
2024-03-28T11:58:35.375Z,168.75
2024-03-28T11:59:35.333Z,185.62
2024-03-28T12:00:35.351Z,168.75
2024-03-28T12:01:36.827Z,191.25
2024-03-28T12:02:35.340Z,225.00
2024-03-28T12:03:35.311Z,225.00
2024-03-28T12:04:35.294Z,191.25
2024-03-28T12:05:35.305Z,157.50
2024-03-28T12:06:35.486Z,174.38
2024-03-28T12:07:35.276Z,185.62
2024-03-28T12:08:41.647Z,213.75
2024-03-28T12:09:36.293Z,213.75
2024-03-28T12:10:35.254Z,208.12
2024-03-28T12:11:35.290Z,168.75
2024-03-28T12:12:35.269Z,123.75
2024-03-28T12:13:35.309Z,112.50
2024-03-28T12:14:35.222Z,118.12
2024-03-28T12:15:35.225Z,118.12
2024-03-28T12:16:35.263Z,118.12
2024-03-28T12:17:35.221Z,123.75
2024-03-28T12:18:35.194Z,135.00
2024-03-28T12:19:35.197Z,135.00
2024-03-28T12:20:35.195Z,140.62
2024-03-28T12:21:35.180Z,157.50
2024-03-28T12:22:35.280Z,174.38
2024-03-28T12:23:35.158Z,196.88
2024-03-28T12:24:35.148Z,196.88
2024-03-28T12:25:35.168Z,202.50
2024-03-28T12:26:35.134Z,219.38
2024-03-28T12:27:35.161Z,309.38
2024-03-28T12:28:35.172Z,742.50
2024-03-28T12:29:35.121Z,810.00
2024-03-28T12:30:35.171Z,1305.00
2024-03-28T12:31:35.202Z,2081.25
2024-03-28T12:32:35.137Z,1603.12
2024-03-28T12:33:35.090Z,1130.62
2024-03-28T12:34:35.192Z,2064.38
2024-03-28T12:35:35.184Z,2013.75
2024-03-28T12:36:36.090Z,2086.88
2024-03-28T12:37:35.070Z,1260.00
2024-03-28T12:38:35.066Z,1456.88
2024-03-28T12:39:35.069Z,534.38
2024-03-28T12:40:35.549Z,928.12
2024-03-28T12:41:35.044Z,1951.88
2024-03-28T12:42:35.043Z,1923.75
2024-03-28T12:43:35.038Z,2041.88
2024-03-28T12:44:35.027Z,1946.25
2024-03-28T12:45:35.087Z,1749.38
2024-03-28T12:46:35.191Z,1856.25
2024-03-28T12:47:34.993Z,1158.75
2024-03-28T12:48:35.947Z,1625.62